Pittsburgh, Pennsylvania
Traffic Map
Current Weather Conditions
Pittsburgh, Pennsylvania
Overcast
Overcast
58°
Feels Like: 58°
Wind Chill: 58° Ceiling: 9000
Heat Index: 58° Visibility: 10mi
Dew Point: 50° Wind: 0mph
Humidity: 75% Direction: ° ()
Pressure: 29.67in Gusts: 0mph
Raw Report DataKAGC 240653Z AUTO 00000KT 10SM OVC090 14/10 A2967 RMK AO2 SLP047 T01440100
Traffic Incident Summary
Active as of:
Severity:
Category:
InformationThere was an issue retrieving the traffic information for this location. Please try a different location or try again shortly.
Advertisements
Track Severe Weather on mobile